Time;durP1;ratioP1;P1;durP2;ratioP2;P2;SDS_P1;SDS_P2;PMS_P1;PMS_P2;Temp;Humidity;BMP_temperature;BMP_pressure;BME280_temperature;BME280_humidity;BME280_pressure;Samples;Min_cycle;Max_cycle;Signal;HPM_P1;HPM_P2
2022/09/08 00:01:52;;;;;;;;;;;18.20;99.90;;;;;;5069626;28;19916;-46
2022/09/08 00:04:17;;;;;;;;;;;18.20;99.90;;;;;;5070168;28;19920;-47
2022/09/08 00:06:46;;;;;;;;;;;18.20;99.90;;;;;;5069145;28;19916;-47
2022/09/08 00:09:11;;;;;;;;;;;18.20;99.90;;;;;;5070301;28;19927;-46
2022/09/08 00:11:38;;;;;;;;;;;18.20;99.90;;;;;;5069585;28;20326;-46
2022/09/08 00:14:05;;;;;;;;;;;18.20;99.90;;;;;;5069822;28;19923;-47
2022/09/08 00:16:31;;;;;;;;;;;18.20;99.90;;;;;;5069406;28;19942;-50
2022/09/08 00:18:57;;;;;;;;;;;18.20;99.90;;;;;;5070007;28;19920;-49
2022/09/08 00:21:23;;;;;;;;;;;18.20;99.90;;;;;;5069922;28;20355;-51
2022/09/08 00:23:49;;;;;;;;;;;18.20;99.90;;;;;;5069817;28;20076;-49
2022/09/08 00:26:15;;;;;;;;;;;18.20;99.90;;;;;;5069335;28;19916;-46
2022/09/08 00:28:41;;;;;;;;;;;18.20;99.90;;;;;;5070576;28;19929;-48
2022/09/08 00:31:06;;;;;;;;;;;18.20;99.90;;;;;;5073145;28;19989;-47
2022/09/08 00:33:33;;;;;;;;;;;18.30;99.90;;;;;;5073387;28;19916;-46
2022/09/08 00:35:58;;;;;;;;;;;18.20;99.90;;;;;;5073439;28;19953;-47
2022/09/08 00:38:24;;;;;;;;;;;18.20;99.90;;;;;;5073694;28;19924;-47
2022/09/08 00:40:52;;;;;;;;;;;18.20;99.90;;;;;;5073695;28;20368;-48
2022/09/08 00:43:47;;;;;;;;;;;18.20;99.90;;;;;;5073557;28;19920;-50
2022/09/08 00:46:15;;;;;;;;;;;18.20;99.90;;;;;;5063629;28;20003;-48
2022/09/08 00:48:43;;;;;;;;;;;18.30;99.90;;;;;;5072581;28;20294;-47
2022/09/08 00:51:09;;;;;;;;;;;18.30;99.90;;;;;;5073031;28;19928;-47
2022/09/08 00:53:37;;;;;;;;;;;18.20;99.90;;;;;;5073123;28;19924;-47
2022/09/08 00:56:05;;;;;;;;;;;18.20;99.90;;;;;;5073132;28;19916;-46
2022/09/08 00:58:33;;;;;;;;;;;18.30;99.90;;;;;;5073375;28;19929;-48
2022/09/08 01:01:00;;;;;;;;;;;18.20;99.90;;;;;;5073178;28;19916;-46
2022/09/08 01:03:26;;;;;;;;;;;18.10;99.90;;;;;;5073184;28;19917;-49
2022/09/08 01:06:04;;;;;;;;;;;18.20;99.90;;;;;;5073329;28;19969;-50
2022/09/08 01:14:43;;;;;;;;;;;18.00;99.90;;;;;;5072968;28;20054;-47
2022/09/08 01:17:22;;;;;;;;;;;18.20;99.90;;;;;;5072226;28;19970;-49
2022/09/08 01:19:48;;;;;;;;;;;18.10;99.90;;;;;;5073082;28;19945;-45
2022/09/08 01:22:32;;;;;;;;;;;18.10;99.90;;;;;;5071756;28;19920;-51
2022/09/08 01:25:16;;;;;;;;;;;18.10;99.90;;;;;;5072586;28;19916;-50
2022/09/08 01:27:43;;;;;;;;;;;18.00;99.90;;;;;;5072848;28;19974;-46
2022/09/08 01:30:10;;;;;;;;;;;18.10;99.90;;;;;;5071578;28;19920;-49
2022/09/08 01:32:38;;;;;;;;;;;18.10;99.90;;;;;;5071025;28;19916;-47
2022/09/08 01:35:05;;;;;;;;;;;18.10;99.90;;;;;;5072606;28;20419;-47
2022/09/08 01:37:30;;;;;;;;;;;18.00;99.90;;;;;;5071087;28;19924;-48
2022/09/08 01:39:57;;;;;;;;;;;18.10;99.90;;;;;;5072744;28;19923;-46
2022/09/08 01:42:23;;;;;;;;;;;18.10;99.90;;;;;;5072429;28;20007;-46
2022/09/08 01:44:49;;;;;;;;;;;18.10;99.90;;;;;;5072841;28;20287;-49
2022/09/08 01:47:14;;;;;;;;;;;18.00;99.90;;;;;;5072009;28;19924;-46
2022/09/08 01:49:40;;;;;;;;;;;17.90;99.90;;;;;;5072328;28;20427;-47
2022/09/08 01:52:05;;;;;;;;;;;17.90;99.90;;;;;;5072094;28;19920;-46
2022/09/08 01:54:32;;;;;;;;;;;18.00;99.90;;;;;;5071125;28;20018;-45
2022/09/08 01:56:58;;;;;;;;;;;17.90;99.90;;;;;;5071966;28;20007;-47
2022/09/08 01:59:23;;;;;;;;;;;18.00;99.90;;;;;;5072464;28;19916;-47
2022/09/08 02:01:49;;;;;;;;;;;18.00;99.90;;;;;;5070515;28;19916;-52
2022/09/08 02:04:15;;;;;;;;;;;18.00;99.90;;;;;;5072302;28;19927;-49
2022/09/08 02:06:41;;;;;;;;;;;18.00;99.90;;;;;;5071479;28;19920;-47
2022/09/08 02:09:06;;;;;;;;;;;17.90;99.90;;;;;;5072324;28;19916;-51
2022/09/08 02:11:32;;;;;;;;;;;17.80;99.90;;;;;;5071857;28;20077;-47
2022/09/08 02:13:58;;;;;;;;;;;17.90;99.90;;;;;;5071984;28;19916;-48
2022/09/08 02:16:24;;;;;;;;;;;17.80;99.90;;;;;;5071514;28;19926;-46
2022/09/08 02:18:52;;;;;;;;;;;17.90;99.90;;;;;;5071740;28;19924;-46
2022/09/08 02:21:18;;;;;;;;;;;17.80;99.90;;;;;;5071898;28;20010;-48
2022/09/08 02:23:45;;;;;;;;;;;17.90;99.90;;;;;;5071857;28;19920;-47
2022/09/08 02:26:24;;;;;;;;;;;17.90;99.90;;;;;;5070999;28;19931;-48
2022/09/08 02:28:53;;;;;;;;;;;18.00;99.90;;;;;;5071868;28;19966;-48
2022/09/08 02:31:19;;;;;;;;;;;17.90;99.90;;;;;;5071162;28;19923;-46
2022/09/08 02:33:45;;;;;;;;;;;17.90;99.90;;;;;;5071588;28;19939;-45
2022/09/08 02:36:11;;;;;;;;;;;17.90;99.90;;;;;;5070978;28;20121;-49
2022/09/08 02:38:37;;;;;;;;;;;17.90;99.90;;;;;;5071221;28;20306;-50
2022/09/08 02:41:03;;;;;;;;;;;17.90;99.90;;;;;;5071476;28;20338;-48
2022/09/08 02:43:29;;;;;;;;;;;18.00;99.90;;;;;;5071613;28;19961;-47
2022/09/08 02:45:55;;;;;;;;;;;18.00;99.90;;;;;;5070831;28;19926;-48
2022/09/08 02:48:21;;;;;;;;;;;18.10;99.90;;;;;;5071033;28;20287;-48
2022/09/08 02:50:46;;;;;;;;;;;18.10;99.90;;;;;;5071094;28;19927;-47
2022/09/08 02:53:12;;;;;;;;;;;18.00;99.90;;;;;;5070589;28;19928;-48
2022/09/08 02:55:39;;;;;;;;;;;18.00;99.90;;;;;;5070661;28;19923;-48
2022/09/08 02:58:06;;;;;;;;;;;18.10;99.90;;;;;;5070800;28;19920;-47
2022/09/08 03:00:32;;;;;;;;;;;18.10;99.90;;;;;;5069679;28;19924;-46
2022/09/08 03:02:58;;;;;;;;;;;18.10;99.90;;;;;;5069453;28;19917;-45
2022/09/08 03:05:24;;;;;;;;;;;18.00;99.90;;;;;;5070826;28;19920;-45
2022/09/08 03:07:49;;;;;;;;;;;17.90;99.90;;;;;;5070215;28;19923;-45
2022/09/08 03:10:15;;;;;;;;;;;17.80;99.90;;;;;;5070843;28;19924;-51
2022/09/08 03:12:41;;;;;;;;;;;17.80;99.90;;;;;;5071157;28;19924;-45
2022/09/08 03:15:06;;;;;;;;;;;17.80;99.90;;;;;;5070781;28;19931;-46
2022/09/08 03:17:32;;;;;;;;;;;17.60;99.90;;;;;;5070161;28;19979;-49
2022/09/08 03:19:58;;;;;;;;;;;17.40;99.90;;;;;;5070581;28;19916;-46
2022/09/08 03:22:23;;;;;;;;;;;17.40;99.90;;;;;;5069271;28;19917;-48
2022/09/08 03:24:49;;;;;;;;;;;17.30;99.90;;;;;;5069135;28;19966;-48
2022/09/08 03:27:14;;;;;;;;;;;17.40;99.90;;;;;;5069005;28;20359;-46
2022/09/08 03:29:40;;;;;;;;;;;17.50;99.90;;;;;;5068872;28;20375;-47
2022/09/08 03:32:06;;;;;;;;;;;17.40;99.90;;;;;;5067631;28;19996;-48
2022/09/08 03:34:31;;;;;;;;;;;17.60;99.90;;;;;;5069032;28;19928;-46
2022/09/08 03:36:57;;;;;;;;;;;17.40;99.90;;;;;;5070072;28;19971;-49
2022/09/08 03:39:23;;;;;;;;;;;17.50;99.90;;;;;;5068975;28;19916;-46
2022/09/08 03:41:48;;;;;;;;;;;17.60;99.90;;;;;;5070234;28;19920;-46
2022/09/08 03:44:14;;;;;;;;;;;17.30;99.90;;;;;;5069764;28;19916;-47
2022/09/08 03:46:40;;;;;;;;;;;17.20;99.90;;;;;;5068042;28;19973;-46
2022/09/08 03:49:06;;;;;;;;;;;17.40;99.90;;;;;;5070108;28;20025;-47
2022/09/08 03:51:31;;;;;;;;;;;17.10;99.90;;;;;;5068332;28;20312;-46
2022/09/08 03:54:46;;;;;;;;;;;17.10;99.90;;;;;;5068692;28;20415;-47
2022/09/08 03:56:43;;;;;;;;;;;17.10;99.90;;;;;;5069442;28;19924;-48
2022/09/08 03:59:09;;;;;;;;;;;17.20;99.90;;;;;;5070068;28;19946;-49
2022/09/08 04:01:35;;;;;;;;;;;17.30;99.90;;;;;;5069606;28;19954;-46
2022/09/08 04:04:01;;;;;;;;;;;17.50;99.90;;;;;;5069442;28;20018;-46
2022/09/08 04:06:29;;;;;;;;;;;17.20;99.90;;;;;;5069066;28;20360;-48
2022/09/08 04:08:54;;;;;;;;;;;17.30;99.90;;;;;;5070017;28;19982;-47
2022/09/08 04:11:20;;;;;;;;;;;17.10;99.90;;;;;;5069674;28;19928;-47
2022/09/08 04:13:46;;;;;;;;;;;17.20;99.90;;;;;;5070055;28;19927;-46
2022/09/08 04:16:12;;;;;;;;;;;17.10;99.90;;;;;;5068476;28;19920;-46
2022/09/08 04:18:37;;;;;;;;;;;17.20;99.90;;;;;;5069824;28;19947;-46
2022/09/08 04:21:04;;;;;;;;;;;17.20;99.90;;;;;;5069801;28;19923;-47
2022/09/08 04:23:30;;;;;;;;;;;16.80;99.90;;;;;;5069726;28;19965;-46
2022/09/08 04:26:00;;;;;;;;;;;17.00;99.90;;;;;;5068306;28;19927;-46
2022/09/08 04:28:26;;;;;;;;;;;17.10;99.90;;;;;;5070248;28;20367;-46
2022/09/08 04:30:52;;;;;;;;;;;16.80;99.90;;;;;;5069071;28;19923;-48
2022/09/08 04:33:17;;;;;;;;;;;16.80;99.90;;;;;;5068578;28;20375;-47
2022/09/08 04:35:43;;;;;;;;;;;17.00;99.90;;;;;;5069560;28;19929;-47
2022/09/08 04:38:09;;;;;;;;;;;16.80;99.90;;;;;;5067898;28;20634;-47
2022/09/08 04:40:34;;;;;;;;;;;17.10;99.90;;;;;;5068456;28;20368;-49
2022/09/08 04:43:00;;;;;;;;;;;17.00;99.90;;;;;;5069771;28;19927;-50
2022/09/08 04:45:25;;;;;;;;;;;17.00;99.90;;;;;;5069574;28;19923;-49
2022/09/08 04:47:51;;;;;;;;;;;17.10;99.90;;;;;;5069498;28;20007;-47
2022/09/08 04:50:17;;;;;;;;;;;17.20;99.90;;;;;;5069433;28;19950;-51
2022/09/08 04:52:42;;;;;;;;;;;17.20;99.90;;;;;;5069641;28;19928;-49
2022/09/08 04:55:08;;;;;;;;;;;17.00;99.90;;;;;;5069207;28;19916;-47
2022/09/08 04:57:34;;;;;;;;;;;17.10;99.90;;;;;;5068994;28;19924;-52
2022/09/08 04:59:59;;;;;;;;;;;17.10;99.90;;;;;;5069562;28;19920;-51
2022/09/08 05:02:25;;;;;;;;;;;16.80;99.90;;;;;;5068912;28;19916;-50
2022/09/08 05:04:50;;;;;;;;;;;16.90;99.90;;;;;;5069234;28;20343;-48
2022/09/08 05:07:16;;;;;;;;;;;17.00;99.90;;;;;;5067609;28;19916;-52
2022/09/08 05:09:43;;;;;;;;;;;16.90;99.90;;;;;;5068099;28;19924;-47
2022/09/08 05:12:08;;;;;;;;;;;16.80;99.90;;;;;;5069101;28;19969;-49
2022/09/08 05:14:34;;;;;;;;;;;16.80;99.90;;;;;;5069394;28;19917;-48
2022/09/08 05:16:59;;;;;;;;;;;16.90;99.90;;;;;;5072557;28;19956;-46
2022/09/08 05:19:25;;;;;;;;;;;17.00;99.90;;;;;;5073004;28;19920;-46
2022/09/08 05:21:51;;;;;;;;;;;17.10;99.90;;;;;;5072943;28;20024;-46
2022/09/08 05:24:16;;;;;;;;;;;17.10;99.90;;;;;;5072661;28;19969;-46
2022/09/08 05:26:42;;;;;;;;;;;16.90;99.90;;;;;;5072313;28;20997;-46
2022/09/08 05:29:07;;;;;;;;;;;17.10;99.90;;;;;;5073027;28;19927;-47
2022/09/08 05:31:33;;;;;;;;;;;17.00;99.90;;;;;;5072520;28;19921;-46
2022/09/08 05:33:59;;;;;;;;;;;17.20;99.90;;;;;;5072504;28;19920;-46
2022/09/08 05:36:26;;;;;;;;;;;16.90;99.90;;;;;;5072503;28;19920;-47
2022/09/08 05:38:52;;;;;;;;;;;17.00;99.90;;;;;;5072526;28;19970;-46
2022/09/08 05:41:18;;;;;;;;;;;17.00;99.90;;;;;;5072877;28;19964;-46
2022/09/08 05:43:44;;;;;;;;;;;16.90;99.90;;;;;;5072332;28;20010;-47
2022/09/08 05:46:10;;;;;;;;;;;16.90;99.90;;;;;;5072002;28;20015;-46
2022/09/08 05:48:35;;;;;;;;;;;17.10;99.90;;;;;;5072199;28;19916;-46
2022/09/08 05:51:07;;;;;;;;;;;17.00;99.90;;;;;;5072188;28;19935;-46
2022/09/08 05:53:32;;;;;;;;;;;17.20;99.90;;;;;;5072553;28;19920;-48
2022/09/08 05:55:59;;;;;;;;;;;17.30;99.90;;;;;;5071849;28;20380;-48
2022/09/08 05:58:25;;;;;;;;;;;17.10;99.90;;;;;;5072233;28;19987;-47
2022/09/08 06:00:57;;;;;;;;;;;17.20;99.90;;;;;;5070661;28;20399;-49
2022/09/08 06:03:23;;;;;;;;;;;17.40;99.90;;;;;;5072084;28;19920;-46
2022/09/08 06:05:49;;;;;;;;;;;17.10;99.90;;;;;;5072060;28;19924;-46
2022/09/08 06:08:14;;;;;;;;;;;17.20;99.90;;;;;;5071889;28;20280;-47
2022/09/08 06:10:40;;;;;;;;;;;17.30;99.90;;;;;;5071942;28;20426;-48
2022/09/08 06:13:05;;;;;;;;;;;17.40;99.90;;;;;;5072293;28;20366;-46
2022/09/08 06:15:31;;;;;;;;;;;17.30;99.90;;;;;;5071268;28;19923;-47
2022/09/08 06:18:01;;;;;;;;;;;17.30;99.90;;;;;;5070333;28;19921;-48
2022/09/08 06:20:26;;;;;;;;;;;17.30;99.90;;;;;;5071870;28;20401;-47
2022/09/08 06:22:52;;;;;;;;;;;17.10;99.90;;;;;;5071097;28;19920;-48
2022/09/08 06:25:18;;;;;;;;;;;16.90;99.90;;;;;;5071999;28;19978;-46
2022/09/08 06:27:43;;;;;;;;;;;17.00;99.90;;;;;;5070190;28;20181;-50
2022/09/08 06:30:10;;;;;;;;;;;17.10;99.90;;;;;;5071836;28;19923;-46
2022/09/08 06:32:56;;;;;;;;;;;17.10;99.90;;;;;;5071339;28;20267;-48
2022/09/08 06:35:27;;;;;;;;;;;17.20;99.90;;;;;;5069527;28;19917;-48
2022/09/08 06:37:54;;;;;;;;;;;16.90;99.90;;;;;;5071581;28;19928;-47
2022/09/08 06:40:25;;;;;;;;;;;17.00;99.90;;;;;;5071664;28;19979;-46
2022/09/08 06:42:56;;;;;;;;;;;17.00;99.90;;;;;;5071238;28;19924;-46
2022/09/08 06:45:24;;;;;;;;;;;17.10;99.90;;;;;;5070971;28;19920;-46
2022/09/08 06:47:54;;;;;;;;;;;17.10;99.90;;;;;;5070887;28;19916;-46
2022/09/08 06:50:20;;;;;;;;;;;17.00;99.90;;;;;;5070954;28;20011;-46
2022/09/08 06:52:47;;;;;;;;;;;16.80;99.90;;;;;;5071601;28;20015;-48
2022/09/08 06:55:26;;;;;;;;;;;16.80;99.90;;;;;;5071246;28;19920;-46
2022/09/08 06:58:03;;;;;;;;;;;16.90;99.90;;;;;;5070940;28;19946;-47
2022/09/08 07:00:36;;;;;;;;;;;16.90;99.90;;;;;;5071280;28;20122;-47
2022/09/08 07:03:14;;;;;;;;;;;17.00;99.90;;;;;;5052883;28;19924;-46
2022/09/08 07:06:05;;;;;;;;;;;16.80;99.90;;;;;;5070555;28;19920;-47
2022/09/08 07:08:31;;;;;;;;;;;16.70;99.90;;;;;;5065672;28;19959;-47
2022/09/08 07:11:01;;;;;;;;;;;16.80;99.90;;;;;;5070767;28;19959;-46
2022/09/08 07:13:35;;;;;;;;;;;16.90;99.90;;;;;;5070896;28;19999;-47
2022/09/08 07:16:13;;;;;;;;;;;17.10;99.90;;;;;;5070779;28;19930;-46
2022/09/08 07:18:46;;;;;;;;;;;16.80;99.90;;;;;;5052668;28;19963;-47
2022/09/08 07:21:30;;;;;;;;;;;17.10;99.90;;;;;;5069063;28;19919;-47
2022/09/08 07:23:57;;;;;;;;;;;16.90;99.90;;;;;;5070706;28;19917;-46
2022/09/08 07:26:27;;;;;;;;;;;17.10;99.90;;;;;;5069982;28;19920;-49
2022/09/08 07:28:56;;;;;;;;;;;17.10;99.90;;;;;;5070596;28;19916;-46
2022/09/08 07:31:22;;;;;;;;;;;16.90;99.90;;;;;;5070283;28;19916;-46
2022/09/08 07:33:50;;;;;;;;;;;16.90;99.90;;;;;;5070588;28;19966;-46
2022/09/08 07:36:19;;;;;;;;;;;17.20;99.90;;;;;;5068651;28;19920;-48
2022/09/08 07:38:49;;;;;;;;;;;17.10;99.90;;;;;;5067193;28;19920;-46
2022/09/08 07:41:37;;;;;;;;;;;17.00;99.90;;;;;;5067337;28;19916;-48
2022/09/08 07:44:18;;;;;;;;;;;17.00;99.90;;;;;;5061120;28;19917;-46
2022/09/08 07:46:47;;;;;;;;;;;17.20;99.90;;;;;;5069664;28;19916;-47
2022/09/08 07:49:32;;;;;;;;;;;17.00;99.90;;;;;;5069542;28;19920;-46
2022/09/08 07:51:58;;;;;;;;;;;17.20;99.90;;;;;;5070020;28;19920;-48
2022/09/08 07:54:42;;;;;;;;;;;16.90;99.90;;;;;;5070366;28;19916;-48
2022/09/08 07:57:14;;;;;;;;;;;17.20;99.90;;;;;;5070035;28;19917;-46
2022/09/08 07:59:45;;;;;;;;;;;17.10;99.90;;;;;;5069962;28;19962;-47
2022/09/08 08:02:10;;;;;;;;;;;17.20;99.90;;;;;;5069673;28;19927;-46
2022/09/08 08:04:55;;;;;;;;;;;17.10;99.90;;;;;;5070163;28;19986;-46
2022/09/08 08:07:25;;;;;;;;;;;16.90;99.90;;;;;;5069875;28;19920;-47
2022/09/08 08:10:09;;;;;;;;;;;17.20;99.90;;;;;;5070107;28;19920;-47
2022/09/08 08:12:44;;;;;;;;;;;17.10;99.90;;;;;;5068883;28;19967;-46
2022/09/08 08:15:13;;;;;;;;;;;16.80;99.90;;;;;;5069884;28;19942;-46
2022/09/08 08:17:51;;;;;;;;;;;17.10;99.90;;;;;;5069771;28;19927;-45
2022/09/08 08:20:52;;;;;;;;;;;17.00;99.90;;;;;;5069855;28;20257;-46
2022/09/08 08:23:46;;;;;;;;;;;17.00;99.90;;;;;;5027300;28;20016;-50
2022/09/08 08:26:30;;;;;;;;;;;16.90;99.90;;;;;;5068958;28;19920;-48
2022/09/08 08:29:07;;;;;;;;;;;17.10;99.90;;;;;;5069739;28;19920;-47
2022/09/08 08:31:37;;;;;;;;;;;16.70;99.90;;;;;;5069374;28;19916;-47
2022/09/08 08:34:10;;;;;;;;;;;16.70;99.90;;;;;;5068788;28;19943;-47
2022/09/08 08:36:40;;;;;;;;;;;17.00;99.90;;;;;;5069319;28;19943;-48
2022/09/08 08:39:13;;;;;;;;;;;16.90;99.90;;;;;;5069784;28;20287;-48
2022/09/08 08:41:47;;;;;;;;;;;16.90;99.90;;;;;;5069725;28;19943;-46
2022/09/08 08:44:19;;;;;;;;;;;16.90;99.90;;;;;;5069819;28;19977;-48
2022/09/08 08:46:52;;;;;;;;;;;16.70;99.90;;;;;;5068175;28;20032;-49
2022/09/08 08:49:17;;;;;;;;;;;16.60;99.90;;;;;;5102286;28;20386;-47
2022/09/08 08:51:46;;;;;;;;;;;16.70;99.90;;;;;;5072959;28;19928;-46
2022/09/08 08:54:20;;;;;;;;;;;16.60;99.90;;;;;;5073749;28;19928;-47
2022/09/08 08:57:02;;;;;;;;;;;16.80;99.90;;;;;;5072458;28;19920;-46
2022/09/08 08:59:53;;;;;;;;;;;16.70;99.90;;;;;;5054966;28;19921;-47
2022/09/08 09:02:36;;;;;;;;;;;16.70;99.90;;;;;;5072902;28;19920;-47
2022/09/08 09:05:11;;;;;;;;;;;16.80;99.90;;;;;;5073240;28;19923;-46
2022/09/08 09:07:37;;;;;;;;;;;17.00;99.90;;;;;;5073009;28;20011;-49
2022/09/08 09:10:21;;;;;;;;;;;16.70;99.90;;;;;;5073252;28;20054;-46
2022/09/08 09:13:10;;;;;;;;;;;16.70;99.90;;;;;;5073290;28;19961;-47
2022/09/08 09:15:42;;;;;;;;;;;16.50;99.90;;;;;;5073257;28;19917;-47
2022/09/08 09:18:14;;;;;;;;;;;16.70;99.90;;;;;;5071711;28;19920;-49
2022/09/08 09:20:45;;;;;;;;;;;16.60;99.90;;;;;;5072938;28;19926;-48
2022/09/08 09:23:13;;;;;;;;;;;16.50;99.90;;;;;;5073198;28;19998;-47
2022/09/08 09:26:01;;;;;;;;;;;16.60;99.90;;;;;;5072918;28;19924;-46
2022/09/08 09:28:30;;;;;;;;;;;16.50;99.90;;;;;;5066373;28;20023;-47
2022/09/08 09:30:58;;;;;;;;;;;16.80;99.90;;;;;;5072933;28;20283;-48
2022/09/08 09:33:36;;;;;;;;;;;16.50;99.90;;;;;;5071050;28;19924;-47
2022/09/08 09:36:08;;;;;;;;;;;16.50;99.90;;;;;;5072314;28;19917;-46
2022/09/08 09:38:42;;;;;;;;;;;16.70;99.90;;;;;;5072600;28;19924;-46
2022/09/08 09:41:15;;;;;;;;;;;16.70;99.90;;;;;;5072649;28;20011;-45
2022/09/08 09:43:52;;;;;;;;;;;16.60;99.90;;;;;;5070932;28;20406;-46
2022/09/08 09:46:41;;;;;;;;;;;16.70;99.90;;;;;;5072415;28;19965;-46
2022/09/08 09:49:06;;;;;;;;;;;16.70;99.90;;;;;;5042944;28;20401;-48
2022/09/08 09:51:38;;;;;;;;;;;16.80;99.90;;;;;;5072113;28;20027;-48
2022/09/08 09:54:13;;;;;;;;;;;16.60;99.90;;;;;;5072005;28;19916;-46
2022/09/08 09:56:51;;;;;;;;;;;16.60;99.90;;;;;;5072085;28;19959;-48
2022/09/08 09:59:38;;;;;;;;;;;16.80;99.90;;;;;;5070939;28;19924;-46
2022/09/08 10:02:12;;;;;;;;;;;16.80;99.90;;;;;;5070573;28;19923;-47
2022/09/08 10:04:56;;;;;;;;;;;16.80;99.90;;;;;;5072382;28;20275;-47
2022/09/08 10:07:21;;;;;;;;;;;16.60;99.90;;;;;;5071871;28;20381;-47
2022/09/08 10:09:47;;;;;;;;;;;16.70;99.90;;;;;;5072016;28;19916;-47
2022/09/08 10:12:31;;;;;;;;;;;16.80;99.90;;;;;;5071877;28;19942;-47
2022/09/08 10:15:11;;;;;;;;;;;16.60;99.90;;;;;;5071624;28;20057;-46
2022/09/08 10:17:51;;;;;;;;;;;16.80;99.90;;;;;;5071823;28;19920;-46
2022/09/08 10:20:30;;;;;;;;;;;16.80;99.90;;;;;;5071969;28;20002;-49
2022/09/08 10:22:56;;;;;;;;;;;16.80;99.90;;;;;;5071815;28;19942;-48
2022/09/08 10:25:21;;;;;;;;;;;16.80;99.90;;;;;;5071959;28;20003;-47
2022/09/08 10:28:06;;;;;;;;;;;16.80;99.90;;;;;;5071280;28;19958;-46
2022/09/08 10:30:43;;;;;;;;;;;16.80;99.90;;;;;;5068960;28;19969;-46
2022/09/08 10:33:18;;;;;;;;;;;16.80;99.90;;;;;;5071157;28;19916;-47
2022/09/08 10:35:49;;;;;;;;;;;16.80;99.90;;;;;;5071385;28;20003;-47
2022/09/08 10:38:33;;;;;;;;;;;17.10;99.90;;;;;;5071425;28;19927;-46
2022/09/08 10:41:17;;;;;;;;;;;17.00;99.90;;;;;;5071343;28;19920;-47
2022/09/08 10:44:01;;;;;;;;;;;17.10;99.90;;;;;;5071482;28;19925;-46
2022/09/08 10:46:48;;;;;;;;;;;17.10;99.90;;;;;;5071016;28;20264;-47
2022/09/08 10:49:26;;;;;;;;;;;17.20;99.90;;;;;;5071439;28;19978;-46
2022/09/08 10:52:08;;;;;;;;;;;17.00;99.90;;;;;;5070967;28;19935;-47
2022/09/08 10:54:59;;;;;;;;;;;17.30;99.90;;;;;;5071239;28;20382;-47
2022/09/08 10:57:34;;;;;;;;;;;17.20;99.90;;;;;;5071163;28;19921;-50
2022/09/08 10:59:59;;;;;;;;;;;17.10;99.90;;;;;;5071370;28;19916;-46
2022/09/08 11:02:33;;;;;;;;;;;17.10;99.90;;;;;;5070776;28;19970;-49
2022/09/08 11:05:01;;;;;;;;;;;17.30;99.90;;;;;;5070654;28;19999;-47
2022/09/08 11:07:27;;;;;;;;;;;17.20;99.90;;;;;;5052891;28;20448;-46
2022/09/08 11:10:01;;;;;;;;;;;17.30;99.90;;;;;;5070391;28;20006;-46
2022/09/08 11:12:30;;;;;;;;;;;17.50;99.90;;;;;;5069487;28;19946;-47
2022/09/08 11:15:14;;;;;;;;;;;17.50;99.90;;;;;;5070437;28;19959;-52
2022/09/08 11:17:44;;;;;;;;;;;17.70;99.90;;;;;;5070521;28;20383;-47
2022/09/08 11:20:09;;;;;;;;;;;17.50;99.90;;;;;;5069520;28;19927;-45
2022/09/08 11:22:53;;;;;;;;;;;17.60;99.90;;;;;;5070790;28;19916;-49
2022/09/08 11:25:31;;;;;;;;;;;17.70;99.90;;;;;;5070472;28;20075;-48
2022/09/08 11:27:57;;;;;;;;;;;17.70;99.90;;;;;;5070561;28;19966;-48
2022/09/08 11:30:27;;;;;;;;;;;17.60;99.90;;;;;;5070419;28;19951;-46
2022/09/08 11:33:00;;;;;;;;;;;17.70;99.90;;;;;;5070233;28;19916;-47
2022/09/08 11:35:28;;;;;;;;;;;17.80;99.90;;;;;;5070233;28;19916;-47
2022/09/08 11:38:08;;;;;;;;;;;17.90;99.90;;;;;;5068579;28;19924;-46
2022/09/08 11:40:37;;;;;;;;;;;18.10;99.90;;;;;;5070174;28;19916;-47
2022/09/08 11:43:21;;;;;;;;;;;18.00;99.90;;;;;;5070275;28;19924;-47
2022/09/08 11:46:13;;;;;;;;;;;18.20;99.90;;;;;;5070166;28;19922;-46
2022/09/08 11:48:38;;;;;;;;;;;18.20;99.90;;;;;;5070152;28;19922;-49
2022/09/08 11:51:04;;;;;;;;;;;18.40;99.90;;;;;;5068299;28;20003;-47
2022/09/08 11:53:37;;;;;;;;;;;18.40;99.90;;;;;;5067505;28;19964;-49
2022/09/08 11:56:06;;;;;;;;;;;18.30;99.90;;;;;;5068110;28;19920;-47
2022/09/08 11:58:41;;;;;;;;;;;18.40;99.90;;;;;;5065346;28;19920;-46
2022/09/08 12:01:23;;;;;;;;;;;18.60;99.90;;;;;;5070484;28;20453;-48
2022/09/08 12:03:51;;;;;;;;;;;18.50;99.90;;;;;;5068821;28;19963;-49
2022/09/08 12:06:31;;;;;;;;;;;18.90;99.90;;;;;;5069548;28;20007;-46
2022/09/08 12:08:57;;;;;;;;;;;18.90;99.90;;;;;;5070254;28;20781;-51
2022/09/08 12:11:41;;;;;;;;;;;18.90;99.90;;;;;;5070250;28;20034;-47
2022/09/08 12:14:13;;;;;;;;;;;19.10;99.90;;;;;;5070141;28;20003;-47
2022/09/08 12:16:48;;;;;;;;;;;19.20;99.90;;;;;;5069237;28;20291;-47
2022/09/08 12:19:17;;;;;;;;;;;19.20;99.90;;;;;;5070001;28;20003;-47
2022/09/08 12:21:48;;;;;;;;;;;19.10;99.90;;;;;;5069814;28;20355;-47
2022/09/08 12:24:32;;;;;;;;;;;19.30;99.90;;;;;;5068211;28;19917;-47
2022/09/08 12:27:04;;;;;;;;;;;19.70;99.90;;;;;;5069450;28;19920;-47
2022/09/08 12:29:30;;;;;;;;;;;19.70;99.90;;;;;;5070126;28;19917;-49
2022/09/08 12:32:04;;;;;;;;;;;19.70;99.90;;;;;;5069397;28;19955;-49
2022/09/08 12:34:45;;;;;;;;;;;19.80;99.90;;;;;;5069990;28;20033;-46
2022/09/08 12:37:35;;;;;;;;;;;19.70;99.90;;;;;;5069399;28;20403;-49
2022/09/08 12:40:01;;;;;;;;;;;19.80;99.90;;;;;;5069965;28;20337;-47
2022/09/08 12:42:33;;;;;;;;;;;19.90;99.90;;;;;;5069735;28;19916;-47
2022/09/08 12:45:25;;;;;;;;;;;19.80;99.90;;;;;;5069881;28;20319;-47
2022/09/08 12:47:53;;;;;;;;;;;19.80;99.90;;;;;;5069618;28;19921;-48
2022/09/08 12:50:25;;;;;;;;;;;19.70;99.90;;;;;;5069508;28;19916;-49
2022/09/08 12:53:06;;;;;;;;;;;19.80;99.90;;;;;;5069199;28;19931;-49
2022/09/08 12:55:45;;;;;;;;;;;19.60;99.90;;;;;;5069780;28;19962;-50
2022/09/08 12:58:24;;;;;;;;;;;19.50;99.90;;;;;;5068763;28;19943;-50
2022/09/08 13:00:49;;;;;;;;;;;19.40;99.90;;;;;;5069290;28;19920;-50
2022/09/08 13:03:34;;;;;;;;;;;19.40;99.90;;;;;;5069009;28;19939;-51
2022/09/08 13:06:03;;;;;;;;;;;19.50;99.90;;;;;;5068345;28;19917;-50
2022/09/08 13:08:41;;;;;;;;;;;19.70;99.90;;;;;;5068774;28;19942;-51
2022/09/08 13:11:06;;;;;;;;;;;19.90;99.90;;;;;;5069387;28;20279;-50
2022/09/08 13:13:41;;;;;;;;;;;20.20;99.90;;;;;;5069055;28;19916;-47
2022/09/08 13:16:06;;;;;;;;;;;20.20;99.90;;;;;;5067447;28;19925;-46
2022/09/08 13:18:37;;;;;;;;;;;20.20;99.90;;;;;;5068273;28;19927;-47
2022/09/08 13:21:08;;;;;;;;;;;20.10;99.90;;;;;;5069366;28;19917;-46
2022/09/08 13:23:52;;;;;;;;;;;20.10;99.90;;;;;;5069166;28;19916;-48
2022/09/08 13:26:18;;;;;;;;;;;20.00;99.90;;;;;;5067457;28;19995;-47
2022/09/08 13:28:55;;;;;;;;;;;20.20;99.90;;;;;;5068732;28;20010;-48
2022/09/08 13:31:27;;;;;;;;;;;20.30;99.90;;;;;;5069240;28;19920;-47
2022/09/08 13:34:00;;;;;;;;;;;20.30;99.90;;;;;;5069038;28;20338;-48
2022/09/08 13:36:45;;;;;;;;;;;20.40;99.90;;;;;;5070364;28;19920;-47
2022/09/08 13:39:30;;;;;;;;;;;20.50;99.90;;;;;;5070518;28;19928;-52
2022/09/08 13:41:58;;;;;;;;;;;20.50;99.90;;;;;;5072699;28;20504;-52
2022/09/08 13:44:43;;;;;;;;;;;20.40;99.90;;;;;;5072530;28;20003;-49
2022/09/08 13:47:27;;;;;;;;;;;20.50;99.90;;;;;;5072553;28;19920;-49
2022/09/08 13:50:14;;;;;;;;;;;20.60;99.90;;;;;;5070815;28;19963;-49
2022/09/08 13:53:00;;;;;;;;;;;20.70;99.90;;;;;;5071853;28;20307;-48
2022/09/08 13:55:37;;;;;;;;;;;20.70;99.90;;;;;;5050459;28;19917;-50
2022/09/08 13:58:19;;;;;;;;;;;20.60;99.90;;;;;;5072217;28;19931;-47
2022/09/08 14:00:59;;;;;;;;;;;20.70;99.90;;;;;;5071973;28;19916;-48
2022/09/08 14:03:26;;;;;;;;;;;20.60;99.90;;;;;;5071980;28;20014;-47
2022/09/08 14:05:52;;;;;;;;;;;20.70;99.90;;;;;;5071811;28;19998;-48
2022/09/08 14:08:29;;;;;;;;;;;20.70;99.90;;;;;;5072124;28;20284;-49
2022/09/08 14:11:01;;;;;;;;;;;20.80;99.90;;;;;;5071848;28;19917;-48
2022/09/08 14:13:34;;;;;;;;;;;21.30;99.90;;;;;;5071910;28;20368;-47
2022/09/08 14:16:11;;;;;;;;;;;21.80;99.90;;;;;;5070338;28;19916;-50
2022/09/08 14:18:56;;;;;;;;;;;22.20;99.90;;;;;;5072009;28;20359;-47
2022/09/08 14:21:40;;;;;;;;;;;22.20;99.90;;;;;;5071822;28;19943;-47
2022/09/08 14:24:05;;;;;;;;;;;21.80;99.90;;;;;;5071656;28;20002;-47
2022/09/08 14:26:54;;;;;;;;;;;21.50;99.90;;;;;;5071475;28;20335;-49
2022/09/08 14:29:19;;;;;;;;;;;21.50;99.90;;;;;;5051917;28;19920;-47
2022/09/08 14:31:45;;;;;;;;;;;21.30;99.90;;;;;;5071404;28;19972;-47
2022/09/08 14:34:31;;;;;;;;;;;21.10;99.90;;;;;;5071594;28;19924;-48
2022/09/08 14:37:03;;;;;;;;;;;20.90;99.90;;;;;;5070918;28;20386;-49
2022/09/08 14:39:32;;;;;;;;;;;20.70;99.90;;;;;;5071319;28;20291;-51
2022/09/08 14:42:16;;;;;;;;;;;20.70;99.90;;;;;;5071823;28;19920;-47
2022/09/08 14:44:48;;;;;;;;;;;20.70;99.90;;;;;;5071426;28;20150;-48
2022/09/08 14:47:26;;;;;;;;;;;20.60;99.90;;;;;;5070207;28;19920;-48